sensor_id;sensor_type;location;lat;lon;timestamp;P1;durP1;ratioP1;P2;durP2;ratioP2
85328;SDS011;76315;47.638;21.652;2024-03-06T00:02:10;15.85;;;7.70;;
85328;SDS011;76315;47.638;21.652;2024-03-06T00:04:36;17.75;;;8.27;;
85328;SDS011;76315;47.638;21.652;2024-03-06T00:07:02;17.50;;;8.13;;
85328;SDS011;76315;47.638;21.652;2024-03-06T00:09:27;14.50;;;7.07;;
85328;SDS011;76315;47.638;21.652;2024-03-06T00:11:53;14.75;;;7.32;;
85328;SDS011;76315;47.638;21.652;2024-03-06T00:14:19;18.37;;;8.07;;
85328;SDS011;76315;47.638;21.652;2024-03-06T00:16:46;18.92;;;8.35;;
85328;SDS011;76315;47.638;21.652;2024-03-06T00:19:13;16.80;;;6.93;;
85328;SDS011;76315;47.638;21.652;2024-03-06T00:21:38;20.65;;;8.48;;
85328;SDS011;76315;47.638;21.652;2024-03-06T00:24:04;16.43;;;7.93;;
85328;SDS011;76315;47.638;21.652;2024-03-06T00:26:30;15.45;;;8.13;;
85328;SDS011;76315;47.638;21.652;2024-03-06T00:28:56;18.90;;;8.73;;
85328;SDS011;76315;47.638;21.652;2024-03-06T00:31:21;18.58;;;8.00;;
85328;SDS011;76315;47.638;21.652;2024-03-06T00:33:47;15.00;;;7.83;;
85328;SDS011;76315;47.638;21.652;2024-03-06T00:36:13;17.05;;;7.78;;
85328;SDS011;76315;47.638;21.652;2024-03-06T00:38:38;16.07;;;8.50;;
85328;SDS011;76315;47.638;21.652;2024-03-06T00:41:04;14.48;;;6.82;;
85328;SDS011;76315;47.638;21.652;2024-03-06T00:43:30;16.58;;;7.85;;
85328;SDS011;76315;47.638;21.652;2024-03-06T00:45:56;16.25;;;8.48;;
85328;SDS011;76315;47.638;21.652;2024-03-06T00:48:22;18.87;;;8.40;;
85328;SDS011;76315;47.638;21.652;2024-03-06T00:50:47;18.53;;;7.73;;
85328;SDS011;76315;47.638;21.652;2024-03-06T00:53:13;15.27;;;7.13;;
85328;SDS011;76315;47.638;21.652;2024-03-06T00:55:38;17.50;;;8.43;;
85328;SDS011;76315;47.638;21.652;2024-03-06T00:58:05;16.10;;;7.95;;
85328;SDS011;76315;47.638;21.652;2024-03-06T01:00:31;18.00;;;8.70;;
85328;SDS011;76315;47.638;21.652;2024-03-06T01:02:57;19.17;;;9.35;;
85328;SDS011;76315;47.638;21.652;2024-03-06T01:05:22;21.93;;;8.43;;
85328;SDS011;76315;47.638;21.652;2024-03-06T01:07:48;20.45;;;8.43;;
85328;SDS011;76315;47.638;21.652;2024-03-06T01:10:13;17.85;;;8.60;;
85328;SDS011;76315;47.638;21.652;2024-03-06T01:12:39;18.47;;;9.00;;
85328;SDS011;76315;47.638;21.652;2024-03-06T01:15:05;18.10;;;7.15;;
85328;SDS011;76315;47.638;21.652;2024-03-06T01:17:31;17.63;;;8.32;;
85328;SDS011;76315;47.638;21.652;2024-03-06T01:19:56;18.92;;;8.68;;
85328;SDS011;76315;47.638;21.652;2024-03-06T01:22:24;17.10;;;8.17;;
85328;SDS011;76315;47.638;21.652;2024-03-06T01:24:49;17.58;;;8.32;;
85328;SDS011;76315;47.638;21.652;2024-03-06T01:27:16;20.67;;;8.57;;
85328;SDS011;76315;47.638;21.652;2024-03-06T01:29:41;18.00;;;8.55;;
85328;SDS011;76315;47.638;21.652;2024-03-06T01:32:07;18.15;;;8.32;;
85328;SDS011;76315;47.638;21.652;2024-03-06T01:34:35;18.35;;;7.93;;
85328;SDS011;76315;47.638;21.652;2024-03-06T01:37:01;18.90;;;8.52;;
85328;SDS011;76315;47.638;21.652;2024-03-06T01:39:26;20.13;;;8.27;;
85328;SDS011;76315;47.638;21.652;2024-03-06T01:41:52;18.73;;;7.93;;
85328;SDS011;76315;47.638;21.652;2024-03-06T01:44:17;18.23;;;8.17;;
85328;SDS011;76315;47.638;21.652;2024-03-06T01:46:44;20.05;;;8.23;;
85328;SDS011;76315;47.638;21.652;2024-03-06T01:49:10;21.35;;;8.55;;
85328;SDS011;76315;47.638;21.652;2024-03-06T01:51:37;17.05;;;8.00;;
85328;SDS011;76315;47.638;21.652;2024-03-06T01:54:02;17.43;;;8.37;;
85328;SDS011;76315;47.638;21.652;2024-03-06T01:56:29;18.60;;;8.60;;
85328;SDS011;76315;47.638;21.652;2024-03-06T01:58:56;18.80;;;8.23;;
85328;SDS011;76315;47.638;21.652;2024-03-06T02:01:22;18.87;;;8.63;;
85328;SDS011;76315;47.638;21.652;2024-03-06T02:03:47;19.05;;;8.30;;
85328;SDS011;76315;47.638;21.652;2024-03-06T02:06:16;19.40;;;9.17;;
85328;SDS011;76315;47.638;21.652;2024-03-06T02:08:45;22.45;;;8.73;;
85328;SDS011;76315;47.638;21.652;2024-03-06T02:11:11;18.80;;;8.18;;
85328;SDS011;76315;47.638;21.652;2024-03-06T02:13:37;23.80;;;9.73;;
85328;SDS011;76315;47.638;21.652;2024-03-06T02:16:04;19.77;;;8.27;;
85328;SDS011;76315;47.638;21.652;2024-03-06T02:18:29;18.77;;;8.75;;
85328;SDS011;76315;47.638;21.652;2024-03-06T02:20:55;18.53;;;8.37;;
85328;SDS011;76315;47.638;21.652;2024-03-06T02:23:20;19.55;;;8.60;;
85328;SDS011;76315;47.638;21.652;2024-03-06T02:25:47;19.70;;;8.53;;
85328;SDS011;76315;47.638;21.652;2024-03-06T02:28:13;17.05;;;8.40;;
85328;SDS011;76315;47.638;21.652;2024-03-06T02:30:39;20.67;;;8.57;;
85328;SDS011;76315;47.638;21.652;2024-03-06T02:33:05;19.17;;;8.33;;
85328;SDS011;76315;47.638;21.652;2024-03-06T02:35:34;19.45;;;8.55;;
85328;SDS011;76315;47.638;21.652;2024-03-06T02:38:01;16.45;;;8.23;;
85328;SDS011;76315;47.638;21.652;2024-03-06T02:40:29;21.33;;;8.47;;
85328;SDS011;76315;47.638;21.652;2024-03-06T02:42:55;23.40;;;9.35;;
85328;SDS011;76315;47.638;21.652;2024-03-06T02:45:21;18.90;;;8.13;;
85328;SDS011;76315;47.638;21.652;2024-03-06T02:47:46;18.43;;;8.30;;
85328;SDS011;76315;47.638;21.652;2024-03-06T02:50:12;21.57;;;8.30;;
85328;SDS011;76315;47.638;21.652;2024-03-06T02:52:38;18.05;;;8.05;;
85328;SDS011;76315;47.638;21.652;2024-03-06T02:55:04;22.90;;;8.67;;
85328;SDS011;76315;47.638;21.652;2024-03-06T02:57:30;18.70;;;8.43;;
85328;SDS011;76315;47.638;21.652;2024-03-06T02:59:56;21.05;;;9.80;;
85328;SDS011;76315;47.638;21.652;2024-03-06T03:02:22;20.63;;;6.97;;
85328;SDS011;76315;47.638;21.652;2024-03-06T03:04:49;21.10;;;8.38;;
85328;SDS011;76315;47.638;21.652;2024-03-06T03:07:15;19.02;;;8.75;;
85328;SDS011;76315;47.638;21.652;2024-03-06T03:09:40;21.20;;;9.63;;
85328;SDS011;76315;47.638;21.652;2024-03-06T03:12:06;21.33;;;8.25;;
85328;SDS011;76315;47.638;21.652;2024-03-06T03:14:32;20.27;;;8.48;;
85328;SDS011;76315;47.638;21.652;2024-03-06T03:16:59;23.23;;;9.35;;
85328;SDS011;76315;47.638;21.652;2024-03-06T03:19:25;22.00;;;9.32;;
85328;SDS011;76315;47.638;21.652;2024-03-06T03:21:51;21.83;;;8.33;;
85328;SDS011;76315;47.638;21.652;2024-03-06T03:24:16;17.05;;;7.78;;
85328;SDS011;76315;47.638;21.652;2024-03-06T03:26:45;19.60;;;8.07;;
85328;SDS011;76315;47.638;21.652;2024-03-06T03:29:10;16.73;;;7.57;;
85328;SDS011;76315;47.638;21.652;2024-03-06T03:31:36;23.83;;;8.97;;
85328;SDS011;76315;47.638;21.652;2024-03-06T03:34:03;19.08;;;8.75;;
85328;SDS011;76315;47.638;21.652;2024-03-06T03:36:30;21.65;;;9.55;;
85328;SDS011;76315;47.638;21.652;2024-03-06T03:38:55;20.13;;;9.13;;
85328;SDS011;76315;47.638;21.652;2024-03-06T03:41:21;21.90;;;8.85;;
85328;SDS011;76315;47.638;21.652;2024-03-06T03:43:46;18.63;;;7.77;;
85328;SDS011;76315;47.638;21.652;2024-03-06T03:46:14;18.92;;;8.32;;
85328;SDS011;76315;47.638;21.652;2024-03-06T03:48:40;17.20;;;8.27;;
85328;SDS011;76315;47.638;21.652;2024-03-06T03:51:05;24.70;;;9.53;;
85328;SDS011;76315;47.638;21.652;2024-03-06T03:53:32;20.70;;;9.15;;
85328;SDS011;76315;47.638;21.652;2024-03-06T03:55:58;20.60;;;7.80;;
85328;SDS011;76315;47.638;21.652;2024-03-06T03:58:25;19.70;;;8.63;;
85328;SDS011;76315;47.638;21.652;2024-03-06T04:00:50;23.07;;;10.33;;
85328;SDS011;76315;47.638;21.652;2024-03-06T04:03:20;21.98;;;8.48;;
85328;SDS011;76315;47.638;21.652;2024-03-06T04:05:49;18.80;;;8.07;;
85328;SDS011;76315;47.638;21.652;2024-03-06T04:08:14;19.35;;;8.20;;
85328;SDS011;76315;47.638;21.652;2024-03-06T04:10:41;21.75;;;8.80;;
85328;SDS011;76315;47.638;21.652;2024-03-06T04:13:10;20.10;;;7.93;;
85328;SDS011;76315;47.638;21.652;2024-03-06T04:15:37;19.85;;;8.20;;
85328;SDS011;76315;47.638;21.652;2024-03-06T04:18:03;21.53;;;8.10;;
85328;SDS011;76315;47.638;21.652;2024-03-06T04:20:28;21.00;;;9.32;;
85328;SDS011;76315;47.638;21.652;2024-03-06T04:22:54;21.47;;;8.47;;
85328;SDS011;76315;47.638;21.652;2024-03-06T04:25:19;20.23;;;7.78;;
85328;SDS011;76315;47.638;21.652;2024-03-06T04:27:45;20.23;;;8.48;;
85328;SDS011;76315;47.638;21.652;2024-03-06T04:30:10;18.40;;;7.63;;
85328;SDS011;76315;47.638;21.652;2024-03-06T04:32:36;18.35;;;8.20;;
85328;SDS011;76315;47.638;21.652;2024-03-06T04:35:02;18.30;;;7.87;;
85328;SDS011;76315;47.638;21.652;2024-03-06T04:37:28;22.10;;;8.88;;
85328;SDS011;76315;47.638;21.652;2024-03-06T04:39:54;17.48;;;8.68;;
85328;SDS011;76315;47.638;21.652;2024-03-06T04:42:20;19.53;;;8.27;;
85328;SDS011;76315;47.638;21.652;2024-03-06T04:44:45;14.63;;;5.93;;
85328;SDS011;76315;47.638;21.652;2024-03-06T04:47:11;19.77;;;8.40;;
85328;SDS011;76315;47.638;21.652;2024-03-06T04:49:37;18.30;;;7.80;;
85328;SDS011;76315;47.638;21.652;2024-03-06T04:52:02;19.17;;;8.15;;
85328;SDS011;76315;47.638;21.652;2024-03-06T04:54:28;17.00;;;7.40;;
85328;SDS011;76315;47.638;21.652;2024-03-06T04:56:54;18.40;;;7.72;;
85328;SDS011;76315;47.638;21.652;2024-03-06T04:59:20;20.58;;;8.25;;
85328;SDS011;76315;47.638;21.652;2024-03-06T05:01:46;21.57;;;8.60;;
85328;SDS011;76315;47.638;21.652;2024-03-06T05:04:11;18.42;;;7.32;;
85328;SDS011;76315;47.638;21.652;2024-03-06T05:06:37;22.17;;;8.87;;
85328;SDS011;76315;47.638;21.652;2024-03-06T05:09:03;21.23;;;7.70;;
85328;SDS011;76315;47.638;21.652;2024-03-06T05:11:29;19.73;;;7.70;;
85328;SDS011;76315;47.638;21.652;2024-03-06T05:13:55;20.23;;;8.38;;
85328;SDS011;76315;47.638;21.652;2024-03-06T05:16:22;17.00;;;6.45;;
85328;SDS011;76315;47.638;21.652;2024-03-06T05:18:49;19.93;;;8.10;;
85328;SDS011;76315;47.638;21.652;2024-03-06T05:21:14;20.42;;;8.43;;
85328;SDS011;76315;47.638;21.652;2024-03-06T05:23:40;15.35;;;7.53;;
85328;SDS011;76315;47.638;21.652;2024-03-06T05:26:06;18.03;;;7.50;;
85328;SDS011;76315;47.638;21.652;2024-03-06T05:28:32;21.50;;;7.60;;
85328;SDS011;76315;47.638;21.652;2024-03-06T05:30:58;18.53;;;7.53;;
85328;SDS011;76315;47.638;21.652;2024-03-06T05:33:23;15.57;;;7.60;;
85328;SDS011;76315;47.638;21.652;2024-03-06T05:35:49;20.17;;;8.07;;
85328;SDS011;76315;47.638;21.652;2024-03-06T05:38:14;19.00;;;7.47;;
85328;SDS011;76315;47.638;21.652;2024-03-06T05:40:40;17.75;;;7.68;;
85328;SDS011;76315;47.638;21.652;2024-03-06T05:43:08;18.93;;;8.23;;
85328;SDS011;76315;47.638;21.652;2024-03-06T05:45:34;19.30;;;7.55;;
85328;SDS011;76315;47.638;21.652;2024-03-06T05:47:59;19.30;;;7.83;;
85328;SDS011;76315;47.638;21.652;2024-03-06T05:50:25;18.10;;;8.23;;
85328;SDS011;76315;47.638;21.652;2024-03-06T05:52:50;18.45;;;7.07;;
85328;SDS011;76315;47.638;21.652;2024-03-06T05:55:16;17.60;;;7.80;;
85328;SDS011;76315;47.638;21.652;2024-03-06T05:57:47;19.27;;;7.88;;
85328;SDS011;76315;47.638;21.652;2024-03-06T06:00:13;19.83;;;8.37;;
85328;SDS011;76315;47.638;21.652;2024-03-06T06:02:38;18.80;;;7.95;;
85328;SDS011;76315;47.638;21.652;2024-03-06T06:05:04;17.53;;;7.37;;
85328;SDS011;76315;47.638;21.652;2024-03-06T06:07:30;15.82;;;7.53;;
85328;SDS011;76315;47.638;21.652;2024-03-06T06:09:56;16.60;;;7.10;;
85328;SDS011;76315;47.638;21.652;2024-03-06T06:12:21;15.70;;;7.28;;
85328;SDS011;76315;47.638;21.652;2024-03-06T06:14:47;12.33;;;5.47;;
85328;SDS011;76315;47.638;21.652;2024-03-06T06:17:13;13.77;;;6.80;;
85328;SDS011;76315;47.638;21.652;2024-03-06T06:19:41;17.23;;;7.93;;
85328;SDS011;76315;47.638;21.652;2024-03-06T06:22:08;15.50;;;7.10;;
85328;SDS011;76315;47.638;21.652;2024-03-06T06:24:37;16.05;;;7.60;;
85328;SDS011;76315;47.638;21.652;2024-03-06T06:27:03;14.70;;;6.65;;
85328;SDS011;76315;47.638;21.652;2024-03-06T06:29:29;12.83;;;5.67;;
85328;SDS011;76315;47.638;21.652;2024-03-06T06:31:56;15.75;;;6.28;;
85328;SDS011;76315;47.638;21.652;2024-03-06T06:34:22;13.10;;;5.78;;
85328;SDS011;76315;47.638;21.652;2024-03-06T06:36:48;17.33;;;6.03;;
85328;SDS011;76315;47.638;21.652;2024-03-06T06:39:13;16.70;;;6.80;;
85328;SDS011;76315;47.638;21.652;2024-03-06T06:41:39;16.87;;;7.27;;
85328;SDS011;76315;47.638;21.652;2024-03-06T06:44:04;15.30;;;6.60;;
85328;SDS011;76315;47.638;21.652;2024-03-06T06:46:30;16.63;;;7.63;;
85328;SDS011;76315;47.638;21.652;2024-03-06T06:48:56;15.87;;;7.40;;
85328;SDS011;76315;47.638;21.652;2024-03-06T06:51:22;16.77;;;7.35;;
85328;SDS011;76315;47.638;21.652;2024-03-06T06:53:48;15.38;;;7.18;;
85328;SDS011;76315;47.638;21.652;2024-03-06T06:56:14;15.43;;;6.80;;
85328;SDS011;76315;47.638;21.652;2024-03-06T06:58:39;15.83;;;7.27;;
85328;SDS011;76315;47.638;21.652;2024-03-06T07:01:08;18.13;;;6.82;;
85328;SDS011;76315;47.638;21.652;2024-03-06T07:03:33;16.83;;;6.63;;
85328;SDS011;76315;47.638;21.652;2024-03-06T07:05:59;17.35;;;7.35;;
85328;SDS011;76315;47.638;21.652;2024-03-06T07:08:24;14.27;;;6.30;;
85328;SDS011;76315;47.638;21.652;2024-03-06T07:10:50;13.98;;;6.47;;
85328;SDS011;76315;47.638;21.652;2024-03-06T07:13:18;9.97;;;4.30;;
85328;SDS011;76315;47.638;21.652;2024-03-06T07:15:44;16.67;;;6.80;;
85328;SDS011;76315;47.638;21.652;2024-03-06T07:18:09;12.43;;;5.77;;
85328;SDS011;76315;47.638;21.652;2024-03-06T07:20:35;14.82;;;6.47;;
85328;SDS011;76315;47.638;21.652;2024-03-06T07:23:01;13.03;;;5.73;;
85328;SDS011;76315;47.638;21.652;2024-03-06T07:25:26;17.40;;;6.60;;
85328;SDS011;76315;47.638;21.652;2024-03-06T07:27:52;14.43;;;6.27;;
85328;SDS011;76315;47.638;21.652;2024-03-06T07:30:17;14.05;;;6.43;;
85328;SDS011;76315;47.638;21.652;2024-03-06T07:32:43;14.63;;;6.77;;
85328;SDS011;76315;47.638;21.652;2024-03-06T07:35:09;14.20;;;6.37;;
85328;SDS011;76315;47.638;21.652;2024-03-06T07:37:35;11.48;;;5.03;;
85328;SDS011;76315;47.638;21.652;2024-03-06T07:40:00;12.83;;;5.93;;
85328;SDS011;76315;47.638;21.652;2024-03-06T07:42:26;11.90;;;5.43;;
85328;SDS011;76315;47.638;21.652;2024-03-06T07:44:52;9.98;;;4.30;;
85328;SDS011;76315;47.638;21.652;2024-03-06T07:47:22;12.23;;;5.67;;
85328;SDS011;76315;47.638;21.652;2024-03-06T07:49:48;13.48;;;5.45;;
85328;SDS011;76315;47.638;21.652;2024-03-06T07:52:15;11.55;;;5.50;;
85328;SDS011;76315;47.638;21.652;2024-03-06T07:54:41;13.50;;;4.73;;
85328;SDS011;76315;47.638;21.652;2024-03-06T07:57:06;16.13;;;6.22;;
85328;SDS011;76315;47.638;21.652;2024-03-06T07:59:32;15.07;;;6.13;;
85328;SDS011;76315;47.638;21.652;2024-03-06T08:01:58;12.23;;;5.47;;
85328;SDS011;76315;47.638;21.652;2024-03-06T08:04:26;11.88;;;5.70;;
85328;SDS011;76315;47.638;21.652;2024-03-06T08:06:52;10.57;;;5.37;;
85328;SDS011;76315;47.638;21.652;2024-03-06T08:09:18;13.90;;;6.07;;
85328;SDS011;76315;47.638;21.652;2024-03-06T08:11:50;18.65;;;8.88;;
85328;SDS011;76315;47.638;21.652;2024-03-06T08:14:17;13.50;;;6.10;;
85328;SDS011;76315;47.638;21.652;2024-03-06T08:16:44;13.93;;;5.60;;
85328;SDS011;76315;47.638;21.652;2024-03-06T08:19:09;12.50;;;5.82;;
85328;SDS011;76315;47.638;21.652;2024-03-06T08:21:35;14.27;;;7.17;;
85328;SDS011;76315;47.638;21.652;2024-03-06T08:24:01;15.45;;;6.15;;
85328;SDS011;76315;47.638;21.652;2024-03-06T08:26:26;17.40;;;7.00;;
85328;SDS011;76315;47.638;21.652;2024-03-06T08:28:52;16.63;;;7.47;;
85328;SDS011;76315;47.638;21.652;2024-03-06T08:31:18;13.85;;;6.88;;
85328;SDS011;76315;47.638;21.652;2024-03-06T08:33:43;17.42;;;8.60;;
85328;SDS011;76315;47.638;21.652;2024-03-06T08:36:09;12.97;;;6.57;;
85328;SDS011;76315;47.638;21.652;2024-03-06T08:38:35;14.65;;;7.45;;
85328;SDS011;76315;47.638;21.652;2024-03-06T08:41:05;15.63;;;6.07;;
85328;SDS011;76315;47.638;21.652;2024-03-06T08:43:38;13.60;;;5.77;;
85328;SDS011;76315;47.638;21.652;2024-03-06T08:46:04;14.15;;;6.03;;
85328;SDS011;76315;47.638;21.652;2024-03-06T08:48:30;17.43;;;6.37;;
85328;SDS011;76315;47.638;21.652;2024-03-06T08:50:55;14.70;;;6.38;;
85328;SDS011;76315;47.638;21.652;2024-03-06T08:53:25;14.67;;;6.53;;
85328;SDS011;76315;47.638;21.652;2024-03-06T08:55:56;15.10;;;5.90;;
85328;SDS011;76315;47.638;21.652;2024-03-06T08:58:23;13.40;;;6.28;;
85328;SDS011;76315;47.638;21.652;2024-03-06T09:00:48;12.70;;;6.10;;
85328;SDS011;76315;47.638;21.652;2024-03-06T09:03:14;13.37;;;6.17;;
85328;SDS011;76315;47.638;21.652;2024-03-06T09:05:40;14.07;;;5.90;;
85328;SDS011;76315;47.638;21.652;2024-03-06T09:08:06;13.30;;;6.10;;
85328;SDS011;76315;47.638;21.652;2024-03-06T09:10:32;16.55;;;6.75;;
85328;SDS011;76315;47.638;21.652;2024-03-06T09:12:58;12.98;;;6.20;;
85328;SDS011;76315;47.638;21.652;2024-03-06T09:15:24;14.67;;;6.37;;
85328;SDS011;76315;47.638;21.652;2024-03-06T09:17:50;17.58;;;7.28;;
85328;SDS011;76315;47.638;21.652;2024-03-06T09:20:16;13.60;;;5.47;;
85328;SDS011;76315;47.638;21.652;2024-03-06T09:22:42;13.05;;;5.97;;
85328;SDS011;76315;47.638;21.652;2024-03-06T09:25:08;13.13;;;6.57;;
85328;SDS011;76315;47.638;21.652;2024-03-06T09:27:38;12.57;;;5.90;;
85328;SDS011;76315;47.638;21.652;2024-03-06T09:30:07;12.90;;;6.32;;
85328;SDS011;76315;47.638;21.652;2024-03-06T09:32:37;14.32;;;7.03;;
85328;SDS011;76315;47.638;21.652;2024-03-06T09:35:06;14.93;;;7.00;;
85328;SDS011;76315;47.638;21.652;2024-03-06T09:37:31;13.45;;;5.88;;
85328;SDS011;76315;47.638;21.652;2024-03-06T09:39:57;13.37;;;6.17;;
85328;SDS011;76315;47.638;21.652;2024-03-06T09:42:23;15.47;;;6.67;;
85328;SDS011;76315;47.638;21.652;2024-03-06T09:44:50;15.30;;;7.28;;
85328;SDS011;76315;47.638;21.652;2024-03-06T09:47:15;12.00;;;5.45;;
85328;SDS011;76315;47.638;21.652;2024-03-06T09:49:53;15.18;;;7.30;;
85328;SDS011;76315;47.638;21.652;2024-03-06T09:52:19;15.03;;;6.67;;
85328;SDS011;76315;47.638;21.652;2024-03-06T09:54:49;12.50;;;6.22;;
85328;SDS011;76315;47.638;21.652;2024-03-06T09:57:21;19.30;;;8.35;;
85328;SDS011;76315;47.638;21.652;2024-03-06T09:59:46;12.70;;;6.03;;
85328;SDS011;76315;47.638;21.652;2024-03-06T10:02:19;17.90;;;7.35;;
85328;SDS011;76315;47.638;21.652;2024-03-06T10:04:56;15.15;;;7.07;;
85328;SDS011;76315;47.638;21.652;2024-03-06T10:07:22;14.13;;;6.90;;
85328;SDS011;76315;47.638;21.652;2024-03-06T10:09:48;14.40;;;7.00;;
85328;SDS011;76315;47.638;21.652;2024-03-06T10:12:22;14.37;;;6.57;;
85328;SDS011;76315;47.638;21.652;2024-03-06T10:14:51;16.15;;;7.35;;
85328;SDS011;76315;47.638;21.652;2024-03-06T10:17:20;12.88;;;6.78;;
85328;SDS011;76315;47.638;21.652;2024-03-06T10:19:52;16.05;;;7.90;;
85328;SDS011;76315;47.638;21.652;2024-03-06T10:22:18;14.40;;;7.50;;
85328;SDS011;76315;47.638;21.652;2024-03-06T10:24:49;14.43;;;7.53;;
85328;SDS011;76315;47.638;21.652;2024-03-06T10:27:15;14.88;;;7.50;;
85328;SDS011;76315;47.638;21.652;2024-03-06T10:29:43;12.90;;;6.60;;
85328;SDS011;76315;47.638;21.652;2024-03-06T10:32:18;13.27;;;6.57;;
85328;SDS011;76315;47.638;21.652;2024-03-06T10:34:44;15.43;;;7.20;;
85328;SDS011;76315;47.638;21.652;2024-03-06T10:37:10;13.30;;;6.53;;
85328;SDS011;76315;47.638;21.652;2024-03-06T10:39:49;17.17;;;7.55;;
85328;SDS011;76315;47.638;21.652;2024-03-06T10:42:17;15.52;;;6.93;;
85328;SDS011;76315;47.638;21.652;2024-03-06T10:44:45;13.95;;;6.57;;
85328;SDS011;76315;47.638;21.652;2024-03-06T10:47:16;16.50;;;7.73;;
85328;SDS011;76315;47.638;21.652;2024-03-06T10:49:44;14.18;;;7.43;;
85328;SDS011;76315;47.638;21.652;2024-03-06T10:52:10;13.43;;;6.50;;
85328;SDS011;76315;47.638;21.652;2024-03-06T10:54:37;16.83;;;6.53;;
85328;SDS011;76315;47.638;21.652;2024-03-06T10:57:07;13.82;;;7.28;;
85328;SDS011;76315;47.638;21.652;2024-03-06T10:59:33;14.47;;;7.20;;
85328;SDS011;76315;47.638;21.652;2024-03-06T11:02:00;14.05;;;7.18;;
85328;SDS011;76315;47.638;21.652;2024-03-06T11:04:26;13.05;;;6.43;;
85328;SDS011;76315;47.638;21.652;2024-03-06T11:06:59;14.63;;;6.85;;
85328;SDS011;76315;47.638;21.652;2024-03-06T11:09:34;13.70;;;6.60;;
85328;SDS011;76315;47.638;21.652;2024-03-06T11:12:01;13.65;;;6.85;;
85328;SDS011;76315;47.638;21.652;2024-03-06T11:14:28;14.85;;;6.75;;
85328;SDS011;76315;47.638;21.652;2024-03-06T11:17:03;13.20;;;6.50;;
85328;SDS011;76315;47.638;21.652;2024-03-06T11:20:21;14.52;;;6.35;;
85328;SDS011;76315;47.638;21.652;2024-03-06T11:28:46;14.10;;;7.22;;
85328;SDS011;76315;47.638;21.652;2024-03-06T11:31:15;12.68;;;6.82;;
85328;SDS011;76315;47.638;21.652;2024-03-06T11:33:44;12.20;;;5.85;;
85328;SDS011;76315;47.638;21.652;2024-03-06T11:36:19;13.03;;;5.80;;
85328;SDS011;76315;47.638;21.652;2024-03-06T11:41:15;13.45;;;6.28;;
85328;SDS011;76315;47.638;21.652;2024-03-06T11:43:44;13.20;;;6.40;;
85328;SDS011;76315;47.638;21.652;2024-03-06T11:46:10;13.88;;;6.45;;
85328;SDS011;76315;47.638;21.652;2024-03-06T11:48:38;13.30;;;5.38;;
85328;SDS011;76315;47.638;21.652;2024-03-06T11:51:05;12.82;;;6.25;;
85328;SDS011;76315;47.638;21.652;2024-03-06T11:53:30;13.93;;;5.83;;
85328;SDS011;76315;47.638;21.652;2024-03-06T11:55:58;14.82;;;6.28;;
85328;SDS011;76315;47.638;21.652;2024-03-06T11:58:24;14.48;;;6.25;;
85328;SDS011;76315;47.638;21.652;2024-03-06T12:00:50;14.47;;;5.77;;
85328;SDS011;76315;47.638;21.652;2024-03-06T12:03:18;12.63;;;5.93;;
85328;SDS011;76315;47.638;21.652;2024-03-06T12:05:44;14.88;;;5.82;;
85328;SDS011;76315;47.638;21.652;2024-03-06T12:08:11;14.35;;;6.32;;
85328;SDS011;76315;47.638;21.652;2024-03-06T12:10:37;15.07;;;6.10;;
85328;SDS011;76315;47.638;21.652;2024-03-06T12:13:04;16.50;;;6.88;;
85328;SDS011;76315;47.638;21.652;2024-03-06T12:15:30;14.63;;;6.32;;
85328;SDS011;76315;47.638;21.652;2024-03-06T12:18:00;13.00;;;6.07;;
85328;SDS011;76315;47.638;21.652;2024-03-06T12:20:26;12.60;;;6.45;;
85328;SDS011;76315;47.638;21.652;2024-03-06T12:22:53;14.15;;;6.13;;
85328;SDS011;76315;47.638;21.652;2024-03-06T12:25:23;12.50;;;6.25;;
85328;SDS011;76315;47.638;21.652;2024-03-06T12:27:49;13.35;;;6.63;;
85328;SDS011;76315;47.638;21.652;2024-03-06T12:30:16;14.83;;;6.87;;
85328;SDS011;76315;47.638;21.652;2024-03-06T12:32:45;15.77;;;6.57;;
85328;SDS011;76315;47.638;21.652;2024-03-06T12:35:10;12.93;;;6.05;;
85328;SDS011;76315;47.638;21.652;2024-03-06T12:37:36;12.90;;;6.30;;
85328;SDS011;76315;47.638;21.652;2024-03-06T12:40:09;15.40;;;7.13;;
85328;SDS011;76315;47.638;21.652;2024-03-06T12:42:38;16.45;;;6.20;;
85328;SDS011;76315;47.638;21.652;2024-03-06T12:45:04;12.52;;;6.88;;
85328;SDS011;76315;47.638;21.652;2024-03-06T12:47:30;14.45;;;6.28;;
85328;SDS011;76315;47.638;21.652;2024-03-06T12:49:56;11.60;;;6.33;;
85328;SDS011;76315;47.638;21.652;2024-03-06T12:52:23;12.50;;;6.82;;
85328;SDS011;76315;47.638;21.652;2024-03-06T12:54:57;12.63;;;6.23;;
85328;SDS011;76315;47.638;21.652;2024-03-06T12:57:25;13.63;;;6.45;;
85328;SDS011;76315;47.638;21.652;2024-03-06T12:59:52;15.82;;;7.10;;
85328;SDS011;76315;47.638;21.652;2024-03-06T13:02:18;16.17;;;6.70;;
85328;SDS011;76315;47.638;21.652;2024-03-06T13:04:44;13.63;;;6.37;;
85328;SDS011;76315;47.638;21.652;2024-03-06T13:07:09;15.90;;;6.53;;
85328;SDS011;76315;47.638;21.652;2024-03-06T13:09:35;15.55;;;7.05;;
85328;SDS011;76315;47.638;21.652;2024-03-06T13:12:01;12.50;;;6.23;;
85328;SDS011;76315;47.638;21.652;2024-03-06T13:14:27;12.68;;;6.10;;
85328;SDS011;76315;47.638;21.652;2024-03-06T13:16:52;14.47;;;6.70;;
85328;SDS011;76315;47.638;21.652;2024-03-06T13:19:19;12.75;;;6.35;;
85328;SDS011;76315;47.638;21.652;2024-03-06T13:21:47;12.17;;;6.13;;
85328;SDS011;76315;47.638;21.652;2024-03-06T13:24:22;14.32;;;6.60;;
85328;SDS011;76315;47.638;21.652;2024-03-06T13:27:08;15.85;;;7.40;;
85328;SDS011;76315;47.638;21.652;2024-03-06T13:29:34;15.20;;;6.93;;
85328;SDS011;76315;47.638;21.652;2024-03-06T13:31:59;12.50;;;6.20;;
85328;SDS011;76315;47.638;21.652;2024-03-06T13:34:25;16.77;;;7.10;;
85328;SDS011;76315;47.638;21.652;2024-03-06T13:36:50;13.88;;;6.78;;
85328;SDS011;76315;47.638;21.652;2024-03-06T13:39:16;14.57;;;6.77;;
85328;SDS011;76315;47.638;21.652;2024-03-06T13:41:41;12.80;;;6.13;;
85328;SDS011;76315;47.638;21.652;2024-03-06T13:44:07;17.85;;;6.25;;
85328;SDS011;76315;47.638;21.652;2024-03-06T13:46:33;11.37;;;6.37;;
85328;SDS011;76315;47.638;21.652;2024-03-06T13:48:59;13.43;;;6.10;;
85328;SDS011;76315;47.638;21.652;2024-03-06T13:51:26;13.88;;;6.38;;
85328;SDS011;76315;47.638;21.652;2024-03-06T13:53:52;13.02;;;6.82;;
85328;SDS011;76315;47.638;21.652;2024-03-06T13:56:17;11.73;;;6.17;;
85328;SDS011;76315;47.638;21.652;2024-03-06T13:58:43;11.97;;;6.70;;
85328;SDS011;76315;47.638;21.652;2024-03-06T14:01:09;14.43;;;6.67;;
85328;SDS011;76315;47.638;21.652;2024-03-06T14:03:34;11.97;;;6.63;;
85328;SDS011;76315;47.638;21.652;2024-03-06T14:06:02;13.32;;;6.47;;
85328;SDS011;76315;47.638;21.652;2024-03-06T14:08:29;15.70;;;6.55;;
85328;SDS011;76315;47.638;21.652;2024-03-06T14:10:54;13.67;;;6.33;;
85328;SDS011;76315;47.638;21.652;2024-03-06T14:13:20;11.77;;;6.28;;
85328;SDS011;76315;47.638;21.652;2024-03-06T14:15:45;14.23;;;6.33;;
85328;SDS011;76315;47.638;21.652;2024-03-06T14:18:13;14.35;;;7.03;;
85328;SDS011;76315;47.638;21.652;2024-03-06T14:20:38;13.27;;;6.60;;
85328;SDS011;76315;47.638;21.652;2024-03-06T14:23:09;12.98;;;6.60;;
85328;SDS011;76315;47.638;21.652;2024-03-06T14:25:36;13.77;;;6.63;;
85328;SDS011;76315;47.638;21.652;2024-03-06T14:28:03;13.75;;;6.35;;